Treorchy, United Kingdom
Current Conditions -  °F | °C
As of 1:50 PM on Sunday 23 Nov 2014 (Local Time) from EGDX Reporting Station
Broken Clouds Broken Clouds  
Wind Chill: 45°   Ceiling: 18000
Heat Index: 48°   Visibility: 6mi
Dew Point: 41°   Wind: 7mph
Humidity: 76%   Direction: 330°NNW
Pressure: 30.06"   Gusts: NA
Location:  51.67°N, 3.53°W
Report Text: EGDX 231350Z AUTO 33006KT 9999 FEW140/// BKN180/// 09/05 Q1018
Loading
Personal Weather Stations






























Interactive Weather Map New forecast layout! Learn more

10-Day Weather Forecast

Advertisements
Track Severe Weather on mobile